createdAt,value
2022-12-03T00:00:36.553Z,3.57
2022-12-03T00:03:04.576Z,3.57
2022-12-03T00:05:32.388Z,3.51
2022-12-03T00:08:00.082Z,3.66
2022-12-03T00:10:28.046Z,3.71
2022-12-03T00:12:55.607Z,3.62
2022-12-03T00:15:24.226Z,3.62
2022-12-03T00:17:52.158Z,3.62
2022-12-03T00:20:23.153Z,3.74
2022-12-03T00:22:51.004Z,3.61
2022-12-03T00:25:18.959Z,3.55
2022-12-03T00:27:47.094Z,3.69
2022-12-03T00:30:14.745Z,3.68
2022-12-03T00:32:42.635Z,3.70
2022-12-03T00:35:10.434Z,3.88
2022-12-03T00:37:38.076Z,3.66
2022-12-03T00:40:07.099Z,3.59
2022-12-03T00:42:34.693Z,3.54
2022-12-03T00:45:02.359Z,3.43
2022-12-03T00:47:30.289Z,3.28
2022-12-03T00:49:57.900Z,3.51
2022-12-03T00:52:25.464Z,3.56
2022-12-03T00:54:53.790Z,3.59
2022-12-03T00:57:21.941Z,3.60
2022-12-03T00:59:49.650Z,3.62
2022-12-03T01:02:17.572Z,3.61
2022-12-03T01:04:45.384Z,3.55
2022-12-03T01:07:12.977Z,3.33
2022-12-03T01:09:41.097Z,3.49
2022-12-03T01:12:08.814Z,3.63
2022-12-03T01:14:36.470Z,3.38
2022-12-03T01:17:04.334Z,3.28
2022-12-03T01:19:32.058Z,3.30
2022-12-03T01:21:59.646Z,3.39
2022-12-03T01:24:27.917Z,3.42
2022-12-03T01:26:55.458Z,3.43
2022-12-03T01:29:23.761Z,3.41
2022-12-03T01:31:51.693Z,3.51
2022-12-03T01:34:19.338Z,3.51
2022-12-03T01:36:47.155Z,3.50
2022-12-03T01:39:15.029Z,3.72
2022-12-03T01:41:42.686Z,3.69
2022-12-03T01:44:23.565Z,3.71
2022-12-03T01:46:53.550Z,3.69
2022-12-03T01:49:26.856Z,3.90
2022-12-03T01:51:55.544Z,3.71
2022-12-03T01:54:31.398Z,3.65
2022-12-03T01:56:59.341Z,3.62
2022-12-03T01:59:35.221Z,3.61
2022-12-03T02:02:24.415Z,3.67
2022-12-03T02:04:52.961Z,3.54
2022-12-03T02:07:26.906Z,3.74
2022-12-03T02:09:56.749Z,3.58
2022-12-03T02:12:29.688Z,3.67
2022-12-03T02:14:57.599Z,3.65
2022-12-03T02:17:25.909Z,3.62
2022-12-03T02:19:54.343Z,3.47
2022-12-03T02:22:51.895Z,3.72
2022-12-03T02:25:23.627Z,3.70
2022-12-03T02:27:51.295Z,3.60
2022-12-03T02:30:21.315Z,3.73
2022-12-03T02:32:49.925Z,3.49
2022-12-03T02:35:20.525Z,3.58
2022-12-03T02:37:50.711Z,3.65
2022-12-03T02:40:21.175Z,3.71
2022-12-03T02:42:49.918Z,3.67
2022-12-03T02:45:24.448Z,3.58
2022-12-03T02:47:57.864Z,3.75
2022-12-03T02:50:33.989Z,3.76
2022-12-03T02:53:03.755Z,3.49
2022-12-03T02:55:36.759Z,3.50
2022-12-03T02:58:05.796Z,3.58
2022-12-03T03:00:34.783Z,3.59
2022-12-03T03:03:04.501Z,3.42
2022-12-03T03:05:33.036Z,3.45
2022-12-03T03:08:01.656Z,3.60
2022-12-03T03:10:29.748Z,3.57
2022-12-03T03:12:57.735Z,3.82
2022-12-03T03:15:25.588Z,3.74
2022-12-03T03:17:53.302Z,3.57
2022-12-03T03:20:21.266Z,3.64
2022-12-03T03:22:49.184Z,3.60
2022-12-03T03:25:19.141Z,3.53
2022-12-03T03:27:47.028Z,3.50
2022-12-03T03:30:15.292Z,3.51
2022-12-03T03:32:43.129Z,3.47
2022-12-03T03:35:11.172Z,3.55
2022-12-03T03:37:39.251Z,3.65
2022-12-03T03:40:07.973Z,3.47
2022-12-03T03:42:35.870Z,3.37
2022-12-03T03:45:05.928Z,3.45
2022-12-03T03:47:33.674Z,3.45
2022-12-03T03:50:01.955Z,3.38
2022-12-03T03:52:30.061Z,3.45
2022-12-03T03:54:57.900Z,3.52
2022-12-03T03:57:25.525Z,3.49
2022-12-03T03:59:53.637Z,3.44
2022-12-03T04:02:23.390Z,3.64
2022-12-03T04:04:51.808Z,3.52
2022-12-03T04:07:19.850Z,3.39
2022-12-03T04:09:47.483Z,3.55
2022-12-03T04:12:15.314Z,3.52
2022-12-03T04:14:42.870Z,3.58
2022-12-03T04:17:10.470Z,3.61
2022-12-03T04:19:38.366Z,3.39
2022-12-03T04:22:05.957Z,3.49
2022-12-03T04:24:33.572Z,3.36
2022-12-03T04:27:01.554Z,3.46
2022-12-03T04:29:29.290Z,3.27
2022-12-03T04:31:56.930Z,3.50
2022-12-03T04:34:24.991Z,3.28
2022-12-03T04:36:52.562Z,3.46
2022-12-03T04:39:20.444Z,3.59
2022-12-03T04:41:48.344Z,3.32
2022-12-03T04:44:16.040Z,3.22
2022-12-03T04:46:43.728Z,3.22
2022-12-03T04:49:13.601Z,3.20
2022-12-03T04:51:41.246Z,3.24
2022-12-03T04:54:08.892Z,3.26
2022-12-03T04:56:37.669Z,3.35
2022-12-03T04:59:10.049Z,3.33
2022-12-03T05:01:40.960Z,3.36
2022-12-03T05:04:08.619Z,3.54
2022-12-03T05:06:36.237Z,3.30
2022-12-03T05:09:04.575Z,3.45
2022-12-03T05:11:32.210Z,3.72
2022-12-03T05:13:59.783Z,3.41
2022-12-03T05:16:29.640Z,3.35
2022-12-03T05:18:57.287Z,3.27
2022-12-03T05:21:24.874Z,3.30
2022-12-03T05:23:52.849Z,3.33
2022-12-03T05:26:20.600Z,3.48
2022-12-03T05:28:48.451Z,3.54
2022-12-03T05:31:16.611Z,3.41
2022-12-03T05:33:44.698Z,3.44
2022-12-03T05:36:12.368Z,3.33
2022-12-03T05:38:40.389Z,3.53
2022-12-03T05:41:08.022Z,3.51
2022-12-03T05:43:35.707Z,3.66
2022-12-03T05:46:03.669Z,3.59
2022-12-03T05:48:31.398Z,3.52
2022-12-03T05:50:59.108Z,3.39
2022-12-03T05:53:27.014Z,3.38
2022-12-03T05:55:54.623Z,3.68
2022-12-03T05:58:22.478Z,3.51
2022-12-03T06:00:50.528Z,3.43
2022-12-03T06:03:18.700Z,3.43
2022-12-03T06:05:46.402Z,3.57
2022-12-03T06:08:14.192Z,3.50
2022-12-03T06:10:42.200Z,3.55
2022-12-03T06:13:09.853Z,3.49
2022-12-03T06:15:43.531Z,3.53
2022-12-03T06:18:12.015Z,3.56
2022-12-03T06:20:39.671Z,3.58
2022-12-03T06:23:07.321Z,3.50
2022-12-03T06:25:35.397Z,3.48
2022-12-03T06:28:03.176Z,3.47
2022-12-03T06:30:31.011Z,3.50
2022-12-03T06:32:58.977Z,3.33
2022-12-03T06:35:26.590Z,3.55
2022-12-03T06:37:54.188Z,3.62
2022-12-03T06:40:22.194Z,3.64
2022-12-03T06:42:52.697Z,3.60
2022-12-03T06:45:20.542Z,3.75
2022-12-03T06:47:48.465Z,3.80
2022-12-03T06:50:16.128Z,3.64
2022-12-03T06:52:43.757Z,3.65
2022-12-03T06:55:11.689Z,3.83
2022-12-03T06:57:39.334Z,3.90
2022-12-03T07:00:07.776Z,3.75
2022-12-03T07:02:36.036Z,3.79
2022-12-03T07:05:04.288Z,3.79
2022-12-03T07:07:32.310Z,3.63
2022-12-03T07:10:00.291Z,3.65
2022-12-03T07:12:28.149Z,3.56
2022-12-03T07:14:56.384Z,3.81
2022-12-03T07:17:24.530Z,3.79
2022-12-03T07:19:52.122Z,3.66
2022-12-03T07:22:20.577Z,3.82
2022-12-03T07:24:49.043Z,3.60
2022-12-03T07:27:16.684Z,3.82
2022-12-03T07:29:44.394Z,3.43
2022-12-03T07:32:12.706Z,3.48
2022-12-03T07:34:40.954Z,3.73
2022-12-03T07:37:08.576Z,3.83
2022-12-03T07:39:36.528Z,3.70
2022-12-03T07:42:04.438Z,3.80
2022-12-03T07:44:32.096Z,3.69
2022-12-03T07:47:00.140Z,3.90
2022-12-03T07:49:27.947Z,3.89
2022-12-03T07:51:55.860Z,4.00
2022-12-03T07:54:24.510Z,4.07
2022-12-03T07:56:55.442Z,4.10
2022-12-03T07:59:25.929Z,4.06
2022-12-03T08:01:53.627Z,4.34
2022-12-03T08:04:21.887Z,4.22
2022-12-03T08:06:49.565Z,4.41
2022-12-03T08:09:17.198Z,4.51
2022-12-03T08:11:47.788Z,4.65
2022-12-03T08:14:20.061Z,4.70
2022-12-03T08:16:48.289Z,4.50
2022-12-03T08:19:17.720Z,4.90
2022-12-03T08:21:45.660Z,5.25
2022-12-03T08:24:16.033Z,5.27
2022-12-03T08:26:49.470Z,5.14
2022-12-03T08:29:19.627Z,5.23
2022-12-03T08:31:52.646Z,5.36
2022-12-03T08:34:27.755Z,5.61
2022-12-03T08:37:01.012Z,5.49
2022-12-03T08:39:31.985Z,5.53
2022-12-03T08:42:21.180Z,5.55
2022-12-03T08:44:49.206Z,5.53
2022-12-03T08:47:20.599Z,5.69
2022-12-03T08:49:58.399Z,5.84
2022-12-03T08:52:35.677Z,5.83
2022-12-03T08:55:37.450Z,5.94
2022-12-03T08:58:43.391Z,5.93
2022-12-03T09:01:11.076Z,5.62
2022-12-03T09:03:51.694Z,5.82
2022-12-03T09:06:19.481Z,5.96
2022-12-03T09:08:47.561Z,5.99
2022-12-03T09:11:15.466Z,6.15
2022-12-03T09:13:43.134Z,6.29
2022-12-03T09:16:11.049Z,6.42
2022-12-03T09:18:38.703Z,6.52
2022-12-03T09:21:06.560Z,6.67
2022-12-03T09:23:34.462Z,6.46
2022-12-03T09:26:02.091Z,6.70
2022-12-03T09:28:29.642Z,6.89
2022-12-03T09:30:57.736Z,6.44
2022-12-03T09:33:25.269Z,6.50
2022-12-03T09:35:53.055Z,6.91
2022-12-03T09:38:21.466Z,7.00
2022-12-03T09:40:49.143Z,7.27
2022-12-03T09:43:16.876Z,6.90
2022-12-03T09:45:48.599Z,6.76
2022-12-03T09:48:18.768Z,7.06
2022-12-03T09:50:48.344Z,7.27
2022-12-03T09:53:21.160Z,6.98
2022-12-03T09:55:49.497Z,7.16
2022-12-03T09:58:18.833Z,7.00
2022-12-03T10:00:50.977Z,7.47
2022-12-03T10:03:29.769Z,7.22
2022-12-03T10:05:57.802Z,7.53
2022-12-03T10:08:30.862Z,7.27
2022-12-03T10:11:00.365Z,7.32
2022-12-03T10:13:30.457Z,7.58
2022-12-03T10:16:00.321Z,7.43
2022-12-03T10:18:32.782Z,7.61
2022-12-03T10:21:04.023Z,7.66
2022-12-03T10:23:31.920Z,7.86
2022-12-03T10:26:01.271Z,8.22
2022-12-03T10:28:32.209Z,8.01
2022-12-03T10:31:01.992Z,8.01
2022-12-03T10:33:35.254Z,8.02
2022-12-03T10:36:18.492Z,7.98
2022-12-03T10:38:46.358Z,7.81
2022-12-03T10:41:22.552Z,8.05
2022-12-03T10:43:50.232Z,7.89
2022-12-03T10:46:20.570Z,8.46
2022-12-03T10:49:11.653Z,8.46
2022-12-03T10:51:39.552Z,8.31
2022-12-03T10:54:22.005Z,8.69
2022-12-03T10:56:50.890Z,8.65
2022-12-03T10:59:23.511Z,8.92
2022-12-03T11:01:53.663Z,8.75
2022-12-03T11:04:47.744Z,9.07
2022-12-03T11:07:20.103Z,9.28
2022-12-03T11:09:52.498Z,9.59
2022-12-03T11:12:23.393Z,8.93
2022-12-03T11:14:51.253Z,8.97
2022-12-03T11:17:51.211Z,8.89
2022-12-03T11:20:25.079Z,8.84
2022-12-03T11:22:56.491Z,8.85
2022-12-03T11:25:27.496Z,9.33
2022-12-03T11:28:18.074Z,9.57
2022-12-03T11:30:48.683Z,9.67
2022-12-03T11:33:25.287Z,9.47
2022-12-03T11:36:04.992Z,9.95
2022-12-03T11:38:38.137Z,10.52
2022-12-03T11:41:22.847Z,9.72
2022-12-03T11:43:53.087Z,9.96
2022-12-03T11:46:27.066Z,9.99
2022-12-03T11:48:56.643Z,10.32
2022-12-03T11:51:26.693Z,10.92
2022-12-03T11:53:57.616Z,10.68
2022-12-03T11:56:30.176Z,10.68
2022-12-03T11:59:00.411Z,10.05
2022-12-03T12:01:39.715Z,9.92
2022-12-03T12:04:26.259Z,10.15
2022-12-03T12:06:53.909Z,9.79
2022-12-03T12:09:53.728Z,10.34
2022-12-03T12:12:33.868Z,10.43
2022-12-03T12:15:39.656Z,9.83
2022-12-03T12:18:44.887Z,10.33
2022-12-03T12:21:40.779Z,10.10
2022-12-03T12:24:27.673Z,10.00
2022-12-03T12:26:56.846Z,10.15
2022-12-03T12:29:24.471Z,10.06
2022-12-03T12:31:58.351Z,10.24
2022-12-03T12:34:26.417Z,10.03
2022-12-03T12:36:55.932Z,9.88
2022-12-03T12:39:23.835Z,9.71
2022-12-03T12:41:51.794Z,9.08
2022-12-03T12:44:20.447Z,9.22
2022-12-03T12:46:48.870Z,9.40
2022-12-03T12:49:17.073Z,9.48
2022-12-03T12:51:46.554Z,9.20
2022-12-03T12:54:16.087Z,9.29
2022-12-03T12:56:46.100Z,9.42
2022-12-03T12:59:21.500Z,9.01
2022-12-03T13:01:50.249Z,9.26
2022-12-03T13:04:21.165Z,8.95
2022-12-03T13:06:51.007Z,8.98
2022-12-03T13:09:23.985Z,9.34
2022-12-03T13:11:54.493Z,9.13
2022-12-03T13:14:24.250Z,9.02
2022-12-03T13:16:54.842Z,9.04
2022-12-03T13:19:25.158Z,8.72
2022-12-03T13:21:58.682Z,8.92
2022-12-03T13:24:37.465Z,8.82
2022-12-03T13:27:23.026Z,8.64
2022-12-03T13:29:57.278Z,8.57
2022-12-03T13:32:32.152Z,8.39
2022-12-03T13:35:05.141Z,8.56
2022-12-03T13:37:33.645Z,8.27
2022-12-03T13:40:11.850Z,8.39
2022-12-03T13:42:39.937Z,8.14
2022-12-03T13:45:16.377Z,7.95
2022-12-03T13:47:52.151Z,8.05
2022-12-03T13:50:40.316Z,7.98
2022-12-03T13:53:11.159Z,8.02
2022-12-03T13:55:43.859Z,7.89
2022-12-03T13:58:11.780Z,7.87
2022-12-03T14:00:39.541Z,7.94
2022-12-03T14:03:07.565Z,8.06
2022-12-03T14:05:35.108Z,8.03
2022-12-03T14:08:03.306Z,8.00
2022-12-03T14:10:34.402Z,7.82
2022-12-03T14:13:02.070Z,7.89
2022-12-03T14:15:31.968Z,7.65
2022-12-03T14:17:59.925Z,7.53
2022-12-03T14:20:27.677Z,7.59
2022-12-03T14:22:59.255Z,7.63
2022-12-03T14:25:27.530Z,7.50
2022-12-03T14:27:55.277Z,7.41
2022-12-03T14:30:26.465Z,7.33
2022-12-03T14:32:54.425Z,7.38
2022-12-03T14:35:22.409Z,7.09
2022-12-03T14:37:49.950Z,7.11
2022-12-03T14:40:21.478Z,7.05
2022-12-03T14:42:50.923Z,6.99
2022-12-03T14:45:18.947Z,7.05
2022-12-03T14:47:46.579Z,6.99
2022-12-03T14:50:14.604Z,6.98
2022-12-03T14:52:42.595Z,6.94
2022-12-03T14:55:10.199Z,6.80
2022-12-03T14:57:37.899Z,6.89
2022-12-03T15:00:08.055Z,6.83
2022-12-03T15:02:36.143Z,6.64
2022-12-03T15:05:04.080Z,6.59
2022-12-03T15:07:32.127Z,6.67
2022-12-03T15:09:59.876Z,6.46
2022-12-03T15:12:27.461Z,6.54
2022-12-03T15:14:55.393Z,6.66
2022-12-03T15:17:30.890Z,6.56
2022-12-03T15:19:59.706Z,6.29
2022-12-03T15:22:27.506Z,6.24
2022-12-03T15:24:55.122Z,6.55
2022-12-03T15:27:23.638Z,6.40
2022-12-03T15:29:51.876Z,6.38
2022-12-03T15:32:20.165Z,6.33
2022-12-03T15:34:48.184Z,6.38
2022-12-03T15:37:16.254Z,6.12
2022-12-03T15:39:48.511Z,6.02
2022-12-03T15:42:17.011Z,6.31
2022-12-03T15:44:46.707Z,6.30
2022-12-03T15:47:14.425Z,6.29
2022-12-03T15:49:42.433Z,6.01
2022-12-03T15:52:10.114Z,5.93
2022-12-03T15:54:37.673Z,6.03
2022-12-03T15:57:05.604Z,5.88
2022-12-03T15:59:33.609Z,5.82
2022-12-03T16:02:01.492Z,5.86
2022-12-03T16:04:29.624Z,5.90
2022-12-03T16:06:57.540Z,5.79
2022-12-03T16:09:27.625Z,5.95
2022-12-03T16:11:55.851Z,5.74
2022-12-03T16:14:23.815Z,5.74
2022-12-03T16:16:52.293Z,5.73
2022-12-03T16:19:20.375Z,5.73
2022-12-03T16:21:48.120Z,5.63
2022-12-03T16:24:15.875Z,5.62
2022-12-03T16:26:43.870Z,5.42
2022-12-03T16:29:11.518Z,5.65
2022-12-03T16:31:39.193Z,5.66
2022-12-03T16:34:07.131Z,5.83
2022-12-03T16:36:34.727Z,5.64
2022-12-03T16:39:02.339Z,5.61
2022-12-03T16:41:30.350Z,5.83
2022-12-03T16:43:58.448Z,5.72
2022-12-03T16:46:26.414Z,5.78
2022-12-03T16:48:56.014Z,5.63
2022-12-03T16:51:26.713Z,5.57
2022-12-03T16:53:55.127Z,5.44
2022-12-03T16:56:23.366Z,5.44
2022-12-03T16:58:51.136Z,5.46
2022-12-03T17:01:19.172Z,5.62
2022-12-03T17:03:46.923Z,5.49
2022-12-03T17:06:14.972Z,5.58
2022-12-03T17:08:48.761Z,5.46
2022-12-03T17:11:17.557Z,5.65
2022-12-03T17:13:45.974Z,5.40
2022-12-03T17:16:14.074Z,5.62
2022-12-03T17:18:41.788Z,5.57
2022-12-03T17:21:09.782Z,5.53
2022-12-03T17:23:37.557Z,5.51
2022-12-03T17:26:05.207Z,5.59
2022-12-03T17:28:33.142Z,5.48
2022-12-03T17:31:01.056Z,5.53
2022-12-03T17:33:28.763Z,5.42
2022-12-03T17:35:59.258Z,5.52
2022-12-03T17:38:27.041Z,5.62
2022-12-03T17:40:55.112Z,5.54
2022-12-03T17:43:23.668Z,5.50
2022-12-03T17:45:51.430Z,5.84
2022-12-03T17:48:19.135Z,5.71
2022-12-03T17:50:47.559Z,5.65
2022-12-03T17:53:15.405Z,5.58
2022-12-03T17:55:45.137Z,5.73
2022-12-03T17:58:13.640Z,5.63
2022-12-03T18:00:43.879Z,5.41
2022-12-03T18:03:11.895Z,5.28
2022-12-03T18:05:39.550Z,5.38
2022-12-03T18:08:07.758Z,5.30
2022-12-03T18:10:35.997Z,5.41
2022-12-03T18:13:03.624Z,5.40
2022-12-03T18:15:32.466Z,5.26
2022-12-03T18:18:01.612Z,5.43
2022-12-03T18:20:29.278Z,5.38
2022-12-03T18:23:00.102Z,5.47
2022-12-03T18:25:28.491Z,5.41
2022-12-03T18:27:56.764Z,5.41
2022-12-03T18:30:24.815Z,5.27
2022-12-03T18:32:52.732Z,5.46
2022-12-03T18:35:20.581Z,5.22
2022-12-03T18:37:50.162Z,5.21
2022-12-03T18:40:22.515Z,5.03
2022-12-03T18:42:50.136Z,5.04
2022-12-03T18:45:18.658Z,5.17
2022-12-03T18:47:48.445Z,5.06
2022-12-03T18:50:16.441Z,5.08
2022-12-03T18:52:45.980Z,4.96
2022-12-03T18:55:18.669Z,5.24
2022-12-03T18:57:46.656Z,5.14
2022-12-03T19:00:15.139Z,5.06
2022-12-03T19:05:32.583Z,5.14
2022-12-03T19:08:00.841Z,5.20
2022-12-03T19:10:28.599Z,5.01
2022-12-03T19:12:57.139Z,5.09
2022-12-03T19:15:24.966Z,4.91
2022-12-03T19:17:52.532Z,4.96
2022-12-03T19:20:20.758Z,4.91
2022-12-03T19:22:48.707Z,5.00
2022-12-03T19:25:17.752Z,5.07
2022-12-03T19:27:45.927Z,5.05
2022-12-03T19:30:14.970Z,5.02
2022-12-03T19:32:42.766Z,4.97
2022-12-03T19:35:10.954Z,4.90
2022-12-03T19:37:38.720Z,4.88
2022-12-03T19:40:07.322Z,4.82
2022-12-03T19:42:35.633Z,4.94
2022-12-03T19:45:03.649Z,4.88
2022-12-03T19:47:31.626Z,4.74
2022-12-03T19:50:00.314Z,4.69
2022-12-03T19:52:27.996Z,4.71
2022-12-03T19:54:55.886Z,4.74
2022-12-03T19:57:24.395Z,5.10
2022-12-03T19:59:52.487Z,5.16
2022-12-03T20:02:20.704Z,4.81
2022-12-03T20:04:49.024Z,4.62
2022-12-03T20:07:17.211Z,4.82
2022-12-03T20:09:45.329Z,4.82
2022-12-03T20:12:13.528Z,4.73
2022-12-03T20:14:41.406Z,4.86
2022-12-03T20:17:09.403Z,4.74
2022-12-03T20:19:37.597Z,4.86
2022-12-03T20:22:05.432Z,4.91
2022-12-03T20:24:33.351Z,4.91
2022-12-03T20:27:01.250Z,4.98
2022-12-03T20:29:29.657Z,4.91
2022-12-03T20:31:57.560Z,4.99
2022-12-03T20:34:25.725Z,4.84
2022-12-03T20:36:53.739Z,5.07
2022-12-03T20:39:22.026Z,4.97
2022-12-03T20:41:50.312Z,5.03
2022-12-03T20:44:18.511Z,5.01
2022-12-03T20:46:46.225Z,5.01
2022-12-03T20:49:14.338Z,4.92
2022-12-03T20:51:42.336Z,5.14
2022-12-03T20:54:10.218Z,5.03
2022-12-03T20:56:38.556Z,5.02
2022-12-03T20:59:08.812Z,4.94
2022-12-03T21:01:37.025Z,4.88
2022-12-03T21:04:06.747Z,4.84
2022-12-03T21:06:35.851Z,4.78
2022-12-03T21:09:06.878Z,5.01
2022-12-03T21:11:36.106Z,4.42
2022-12-03T21:14:04.830Z,4.79
2022-12-03T21:19:23.785Z,4.92
2022-12-03T21:21:51.647Z,4.80
2022-12-03T21:24:20.576Z,4.79
2022-12-03T21:26:48.539Z,4.85
2022-12-03T21:29:16.648Z,5.02
2022-12-03T21:31:44.288Z,4.82
2022-12-03T21:34:12.588Z,4.97
2022-12-03T21:36:40.403Z,4.94
2022-12-03T21:39:08.304Z,4.86
2022-12-03T21:41:36.283Z,4.93
2022-12-03T21:44:04.397Z,4.80
2022-12-03T21:47:09.746Z,4.98
2022-12-03T21:49:21.128Z,4.88
2022-12-03T21:51:48.991Z,4.93
2022-12-03T21:54:16.959Z,4.92
2022-12-03T21:56:44.919Z,4.83
2022-12-03T21:59:12.854Z,5.00
2022-12-03T22:01:44.157Z,4.84
2022-12-03T22:04:15.204Z,4.90
2022-12-03T22:06:43.177Z,4.93
2022-12-03T22:09:10.823Z,4.92
2022-12-03T22:11:38.788Z,4.84
2022-12-03T22:14:06.599Z,4.73
2022-12-03T22:16:34.616Z,4.81
2022-12-03T22:19:03.159Z,4.85
2022-12-03T22:21:31.267Z,5.36
2022-12-03T22:23:58.943Z,4.84
2022-12-03T22:26:26.821Z,4.73
2022-12-03T22:28:54.612Z,4.79
2022-12-03T22:31:22.618Z,4.75
2022-12-03T22:33:50.579Z,4.67
2022-12-03T22:36:21.472Z,4.76
2022-12-03T22:38:50.346Z,4.69
2022-12-03T22:41:18.893Z,4.55
2022-12-03T22:43:47.457Z,4.58
2022-12-03T22:46:15.867Z,4.53
2022-12-03T22:48:45.573Z,4.67
2022-12-03T22:51:21.478Z,4.64
2022-12-03T22:53:57.432Z,4.64
2022-12-03T22:56:25.900Z,4.55
2022-12-03T22:58:54.158Z,4.52
2022-12-03T23:01:24.888Z,4.64
2022-12-03T23:03:52.974Z,4.32
2022-12-03T23:06:21.597Z,4.37
2022-12-03T23:08:49.570Z,4.41
2022-12-03T23:11:17.268Z,4.43
2022-12-03T23:13:45.183Z,4.35
2022-12-03T23:16:15.566Z,4.45
2022-12-03T23:18:43.758Z,4.54
2022-12-03T23:21:25.422Z,4.36
2022-12-03T23:23:58.056Z,4.36
2022-12-03T23:26:26.571Z,4.34
2022-12-03T23:28:54.339Z,4.19
2022-12-03T23:31:28.006Z,4.43
2022-12-03T23:33:56.193Z,4.34
2022-12-03T23:36:25.039Z,4.48
2022-12-03T23:38:52.739Z,4.41
2022-12-03T23:41:22.926Z,4.39
2022-12-03T23:43:50.879Z,4.27
2022-12-03T23:46:20.808Z,4.37
2022-12-03T23:48:49.451Z,4.18
2022-12-03T23:51:20.709Z,4.27
2022-12-03T23:53:48.381Z,4.58
2022-12-03T23:56:19.550Z,4.39
2022-12-03T23:58:47.721Z,4.39
